Time;durP1;ratioP1;P1;durP2;ratioP2;P2;SDS_P1;SDS_P2;PMS_P1;PMS_P2;Temp;Humidity;BMP_temperature;BMP_pressure;BME280_temperature;BME280_humidity;BME280_pressure;Samples;Min_cycle;Max_cycle;Signal;HPM_P1;HPM_P2
2022/10/04 00:00:08;;;;;;;;;31.25;25.00;;;;;12.21;70.63;102028.06;5036055;28;48340;-84
2022/10/04 00:02:34;;;;;;;;;40.00;30.50;;;;;12.17;70.50;102029.84;5002714;28;45777;-81
2022/10/04 00:05:06;;;;;;;;;30.00;28.50;;;;;12.13;70.58;102028.16;5036709;28;59351;-82
2022/10/04 00:07:46;;;;;;;;;39.50;29.25;;;;;12.11;70.96;102032.56;5025739;28;45509;-81
2022/10/04 00:10:31;;;;;;;;;36.00;28.00;;;;;12.09;70.92;102033.44;5039180;28;46726;-82
2022/10/04 00:13:04;;;;;;;;;34.50;28.50;;;;;12.07;70.65;102032.59;5039091;28;45420;-82
2022/10/04 00:15:36;;;;;;;;;31.50;28.25;;;;;12.04;71.04;102028.31;5039214;28;45416;-82
2022/10/04 00:18:10;;;;;;;;;33.50;30.25;;;;;12.01;70.63;102023.97;5039578;28;45604;-82
2022/10/04 00:20:49;;;;;;;;;41.75;32.00;;;;;12.02;70.78;102030.06;5056975;28;46673;-82
2022/10/04 00:23:23;;;;;;;;;39.75;29.25;;;;;12.00;71.09;102030.09;5056415;28;45420;-82
2022/10/04 00:25:55;;;;;;;;;35.25;31.25;;;;;11.99;71.01;102027.50;5056214;28;45444;-82
2022/10/04 00:28:20;;;;;;;;;40.00;29.25;;;;;11.96;71.01;102038.84;5038967;28;45305;-82
2022/10/04 00:31:09;;;;;;;;;34.67;28.00;;;;;11.93;70.85;102032.81;5038875;28;47213;-82
2022/10/04 00:33:35;;;;;;;;;33.00;26.75;;;;;11.90;71.42;102032.84;5056774;28;45482;-81
2022/10/04 00:36:23;;;;;;;;;34.75;29.25;;;;;11.86;70.97;102034.59;5038539;28;45387;-84
2022/10/04 00:39:03;;;;;;;;;30.00;27.50;;;;;11.81;70.88;102024.25;5056758;28;45929;-84
2022/10/04 00:41:37;;;;;;;;;39.25;28.50;;;;;11.78;70.94;102031.25;5056662;28;46177;-84
2022/10/04 00:44:04;;;;;;;;;34.50;28.00;;;;;11.74;71.12;102024.34;5038775;28;45818;-84
2022/10/04 00:46:30;;;;;;;;;37.00;30.00;;;;;11.72;70.81;102019.16;5038680;28;45364;-84
2022/10/04 00:49:02;;;;;;;;;31.00;26.00;;;;;11.70;71.34;102023.53;5037950;28;64755;-83
2022/10/04 00:51:45;;;;;;;;;31.00;23.00;;;;;11.68;70.82;102014.84;5021422;28;48473;-84
2022/10/04 00:54:17;;;;;;;;;38.25;28.00;;;;;11.70;71.18;102022.63;5056541;28;45909;-84
2022/10/04 00:56:54;;;;;;;;;34.75;27.50;;;;;11.68;71.19;102021.81;5038691;28;45367;-83
2022/10/04 00:59:20;;;;;;;;;33.00;26.00;;;;;11.67;71.17;102017.47;5038788;28;45325;-84
2022/10/04 01:01:50;;;;;;;;;34.00;30.33;;;;;11.63;71.11;102014.91;5056340;28;46081;-84
2022/10/04 01:04:36;;;;;;;;;31.00;28.00;;;;;11.60;71.61;102001.88;5038313;28;45851;-84
2022/10/04 01:07:02;;;;;;;;;45.50;28.00;;;;;11.58;71.08;102001.06;5038473;28;45509;-84
2022/10/04 01:09:31;;;;;;;;;35.25;28.00;;;;;11.57;71.49;102001.06;5020852;28;45480;-83
2022/10/04 01:12:09;;;;;;;;;33.25;25.50;;;;;11.55;71.90;101993.28;5018342;28;46243;-82
2022/10/04 01:14:46;;;;;;;;;35.50;30.00;;;;;11.54;71.60;101991.56;5018472;28;45414;-82
2022/10/04 01:17:14;;;;;;;;;41.00;30.00;;;;;11.52;71.61;101985.50;5018468;28;45401;-85
2022/10/04 01:19:49;;;;;;;;;33.75;29.75;;;;;11.51;71.78;101986.38;5018062;28;45468;-84
2022/10/04 01:22:29;;;;;;;;;41.75;31.75;;;;;11.49;71.57;101975.09;5035905;28;46656;-84
2022/10/04 01:24:56;;;;;;;;;32.00;26.75;;;;;11.47;71.88;101974.25;5035835;28;45839;-85
2022/10/04 01:27:42;;;;;;;;;31.50;26.00;;;;;11.45;71.98;101967.34;5018065;28;45427;-84
2022/10/04 01:30:13;;;;;;;;;40.00;30.75;;;;;11.44;72.09;101971.72;5018216;28;45514;-83
2022/10/04 01:32:38;;;;;;;;;41.00;31.25;;;;;11.44;71.84;101971.72;5018333;28;47491;-84
2022/10/04 01:35:06;;;;;;;;;37.00;28.25;;;;;11.48;71.64;101978.59;5020474;28;45486;-82
2022/10/04 01:37:32;;;;;;;;;33.25;27.75;;;;;11.49;71.81;101980.31;5037956;28;45380;-83
2022/10/04 01:39:58;;;;;;;;;26.75;23.50;;;;;11.46;71.74;101974.28;5038045;28;45401;-85
2022/10/04 01:42:32;;;;;;;;;35.50;26.50;;;;;11.42;71.60;101974.34;5037686;28;46479;-85
2022/10/04 01:45:32;;;;;;;;;32.00;27.50;;;;;11.40;71.79;101975.22;5037842;28;45922;-84
2022/10/04 01:48:05;;;;;;;;;34.25;26.00;;;;;11.37;71.67;101978.72;5055143;28;45324;-84
2022/10/04 01:50:34;;;;;;;;;37.75;31.25;;;;;11.35;71.92;101972.69;5038035;28;45491;-84
2022/10/04 01:53:25;;;;;;;;;29.00;26.00;;;;;11.32;71.76;101961.41;5055629;28;47064;-84
2022/10/04 01:55:54;;;;;;;;;33.00;31.75;;;;;11.28;71.89;101960.59;5037646;28;45344;-84
2022/10/04 01:58:26;;;;;;;;;41.25;30.75;;;;;11.26;71.95;101951.94;5037905;28;45330;-84
2022/10/04 02:01:25;;;;;;;;;38.75;26.75;;;;;11.25;71.86;101947.59;5037520;28;45432;-84
2022/10/04 02:03:56;;;;;;;;;30.75;24.75;;;;;11.21;71.96;101949.38;4992871;28;46753;-84
2022/10/04 02:06:23;;;;;;;;;36.00;32.75;;;;;11.18;71.81;101941.63;4977064;28;45403;-84
2022/10/04 02:08:49;;;;;;;;;45.25;31.75;;;;;11.16;71.92;101938.16;4982086;28;45403;-84
2022/10/04 02:11:20;;;;;;;;;44.50;34.25;;;;;11.13;72.34;101934.72;4957676;28;45416;-85
2022/10/04 02:13:47;;;;;;;;;40.50;32.00;;;;;11.11;72.20;101936.50;4957677;28;46511;-82
2022/10/04 02:16:13;;;;;;;;;37.00;28.25;;;;;11.08;72.66;101932.16;4973640;28;45952;-83
2022/10/04 02:18:40;;;;;;;;;37.00;29.50;;;;;11.08;72.52;101923.50;4957404;28;45386;-84
2022/10/04 02:21:06;;;;;;;;;36.00;30.50;;;;;11.06;72.44;101927.88;4957753;28;45586;-84
2022/10/04 02:23:33;;;;;;;;;41.75;31.25;;;;;11.05;72.39;101921.81;4973451;28;45623;-85
2022/10/04 02:26:01;;;;;;;;;45.75;32.50;;;;;11.04;72.47;101920.91;4973745;28;45543;-85
2022/10/04 02:28:27;;;;;;;;;34.25;30.50;;;;;11.02;72.13;101924.44;4973531;28;45292;-83
2022/10/04 02:33:44;;;;;;;;;38.00;32.00;;;;;10.97;72.63;101913.19;4967418;28;45455;-84
2022/10/04 02:36:10;;;;;;;;;38.75;30.00;;;;;10.96;72.27;101919.31;4976797;28;45817;-84
2022/10/04 02:38:41;;;;;;;;;37.75;31.75;;;;;10.96;72.01;101916.69;4976803;28;45368;-84
2022/10/04 02:41:34;;;;;;;;;44.00;32.75;;;;;10.94;72.33;101911.50;5029073;28;45444;-83
2022/10/04 02:44:07;;;;;;;;;36.25;25.25;;;;;10.91;72.76;101908.06;5037181;28;47289;-83
2022/10/04 02:47:04;;;;;;;;;36.25;27.00;;;;;10.89;72.51;101907.22;5036922;28;45737;-84
2022/10/04 02:49:36;;;;;;;;;43.00;31.25;;;;;10.88;72.51;101903.72;5055575;28;45331;-84
2022/10/04 02:52:02;;;;;;;;;31.75;23.50;;;;;10.88;72.50;101905.50;5041010;28;45424;-83
2022/10/04 02:54:42;;;;;;;;;44.75;31.25;;;;;10.87;72.46;101896.81;5058476;28;45280;-84
2022/10/04 02:57:21;;;;;;;;;36.75;28.50;;;;;10.85;72.85;101898.59;5040330;28;45986;-84
2022/10/04 02:59:47;;;;;;;;;37.00;29.50;;;;;10.82;73.37;101893.41;5040697;28;45322;-84
2022/10/04 03:02:28;;;;;;;;;36.25;25.75;;;;;10.81;72.61;101892.53;5040044;28;45357;-84
2022/10/04 03:04:56;;;;;;;;;39.25;28.25;;;;;10.76;72.85;101896.94;5040214;28;46589;-84
2022/10/04 03:07:22;;;;;;;;;30.50;26.75;;;;;10.76;72.80;101898.69;5040152;28;46121;-84
2022/10/04 03:09:48;;;;;;;;;31.75;26.50;;;;;10.76;72.86;101893.47;5024102;28;55251;-84
2022/10/04 03:12:17;;;;;;;;;38.00;29.25;;;;;10.76;73.24;101890.88;5020418;28;45499;-84
2022/10/04 03:14:43;;;;;;;;;31.75;25.75;;;;;10.74;72.72;101884.81;5038104;28;46703;-84
2022/10/04 03:17:09;;;;;;;;;37.00;27.00;;;;;10.71;73.02;101885.69;5019936;28;45756;-83
2022/10/04 03:19:37;;;;;;;;;33.00;27.75;;;;;10.70;72.65;101884.00;5020315;28;45397;-82
2022/10/04 03:22:07;;;;;;;;;36.00;27.25;;;;;10.68;72.37;101877.94;5036808;28;45484;-82
2022/10/04 03:24:35;;;;;;;;;36.00;26.25;;;;;10.65;73.03;101877.97;5019997;28;45591;-84
2022/10/04 03:27:05;;;;;;;;;35.50;29.50;;;;;10.64;72.47;101878.81;5037740;28;45446;-84
2022/10/04 03:29:32;;;;;;;;;34.25;25.00;;;;;10.62;72.54;101872.78;5003120;28;45445;-85
2022/10/04 03:32:00;;;;;;;;;31.75;27.25;;;;;10.60;72.76;101869.34;5020115;28;45635;-84
2022/10/04 03:34:35;;;;;;;;;37.00;29.75;;;;;10.59;72.90;101865.03;5035103;28;45519;-84
2022/10/04 03:37:01;;;;;;;;;32.75;25.25;;;;;10.59;72.87;101865.03;5056702;28;45335;-83
2022/10/04 03:39:32;;;;;;;;;31.00;25.25;;;;;10.62;73.05;101865.84;5056454;28;45368;-84
2022/10/04 03:41:59;;;;;;;;;32.75;27.75;;;;;10.61;72.91;101863.25;5039935;28;45441;-83
2022/10/04 03:44:25;;;;;;;;;41.75;30.00;;;;;10.57;72.46;101853.75;5039440;28;46406;-84
2022/10/04 03:46:50;;;;;;;;;39.00;30.75;;;;;10.52;72.89;101840.78;5039006;28;62506;-84
2022/10/04 03:49:22;;;;;;;;;37.25;27.75;;;;;10.49;72.58;101848.63;5057098;28;56642;-84
2022/10/04 03:51:48;;;;;;;;;31.00;27.00;;;;;10.52;72.71;101853.78;5039559;28;45547;-84
2022/10/04 03:54:22;;;;;;;;;30.75;27.75;;;;;10.53;72.61;101847.72;5022808;28;47272;-84
2022/10/04 03:56:49;;;;;;;;;35.00;29.25;;;;;10.51;72.60;101846.00;5057376;28;45398;-84
2022/10/04 03:59:17;;;;;;;;;30.50;27.00;;;;;10.49;72.76;101842.56;5039171;28;45309;-84
2022/10/04 04:02:04;;;;;;;;;32.50;24.25;;;;;10.45;72.47;101854.75;5039694;28;45556;-84
2022/10/04 04:05:02;;;;;;;;;39.75;28.00;;;;;10.41;72.61;101851.31;5057141;28;45607;-84
2022/10/04 04:07:38;;;;;;;;;42.75;32.00;;;;;10.38;72.55;101863.50;4995056;28;45533;-83
2022/10/04 04:10:23;;;;;;;;;31.25;28.50;;;;;10.36;72.59;101867.84;4978960;28;45438;-84
2022/10/04 04:12:52;;;;;;;;;35.50;29.50;;;;;10.33;72.79;101865.28;4978982;28;45371;-84
2022/10/04 04:15:17;;;;;;;;;44.50;30.75;;;;;10.30;72.62;101867.88;4978122;28;45634;-84
2022/10/04 04:17:47;;;;;;;;;39.00;30.00;;;;;10.27;72.79;101867.03;4962259;28;45731;-83
2022/10/04 04:20:33;;;;;;;;;42.00;33.50;;;;;10.27;73.04;101869.63;4978963;28;45477;-84
2022/10/04 04:23:13;;;;;;;;;49.25;35.00;;;;;10.25;72.79;101874.00;4978513;28;45725;-84
2022/10/04 04:25:41;;;;;;;;;46.00;36.00;;;;;10.23;73.17;101875.75;4994951;28;46574;-84
2022/10/04 04:28:31;;;;;;;;;47.00;35.75;;;;;10.21;72.69;101877.47;4961594;28;45912;-83
2022/10/04 04:31:19;;;;;;;;;43.25;34.25;;;;;10.19;72.90;101883.59;4995048;28;45506;-84
2022/10/04 04:33:50;;;;;;;;;52.50;35.00;;;;;10.14;72.91;101878.44;4984515;28;45340;-84
2022/10/04 04:36:16;;;;;;;;;35.00;31.50;;;;;10.15;73.33;101880.16;4978241;28;45423;-84
2022/10/04 04:41:30;;;;;;;;;51.00;34.50;;;;;10.13;73.32;101881.91;4980949;28;45321;-84
2022/10/04 04:43:56;;;;;;;;;42.50;32.50;;;;;10.14;73.52;101883.66;5047397;28;45442;-84
2022/10/04 04:46:21;;;;;;;;;34.00;26.50;;;;;10.15;73.39;101887.97;5038701;28;46678;-84
2022/10/04 04:48:49;;;;;;;;;37.75;28.00;;;;;10.15;73.39;101890.56;5055657;28;45359;-85
2022/10/04 04:51:19;;;;;;;;;32.25;27.00;;;;;10.14;73.21;101883.66;5039023;28;45385;-84
2022/10/04 04:53:46;;;;;;;;;35.00;28.50;;;;;10.14;73.18;101885.38;5022160;28;45507;-85
2022/10/04 04:56:18;;;;;;;;;24.75;21.50;;;;;10.13;72.84;101886.25;5056485;28;45400;-82
2022/10/04 04:58:45;;;;;;;;;33.75;25.75;;;;;10.12;73.06;101885.38;5056133;28;45285;-82
2022/10/04 05:01:32;;;;;;;;;43.00;25.00;;;;;10.09;72.91;101882.81;5038809;28;45380;-82
2022/10/04 05:04:12;;;;;;;;;28.75;25.25;;;;;10.05;72.84;101884.56;5056494;28;45285;-83
2022/10/04 05:06:42;;;;;;;;;33.75;23.00;;;;;10.03;72.96;101891.53;5056294;28;46650;-84
2022/10/04 05:09:25;;;;;;;;;25.75;20.00;;;;;10.05;72.63;101892.38;5056376;28;45373;-84
2022/10/04 05:11:52;;;;;;;;;28.25;22.50;;;;;10.06;72.75;101895.84;5037321;28;45337;-84
2022/10/04 05:14:18;;;;;;;;;41.00;31.50;;;;;10.06;73.18;101894.09;5038416;28;45354;-84
2022/10/04 05:16:52;;;;;;;;;41.50;37.00;;;;;10.04;72.79;101892.38;5038208;28;45403;-85
2022/10/04 05:19:22;;;;;;;;;50.75;40.50;;;;;10.01;73.04;101884.59;5038216;28;46033;-84
2022/10/04 05:21:49;;;;;;;;;49.25;40.25;;;;;9.97;73.14;101882.91;5038292;28;45353;-84
2022/10/04 05:24:20;;;;;;;;;34.25;29.25;;;;;9.96;73.20;101884.66;5038396;28;45497;-85
2022/10/04 05:26:49;;;;;;;;;27.25;24.00;;;;;9.93;72.86;101882.06;5055441;28;47185;-85
2022/10/04 05:29:17;;;;;;;;;21.00;19.75;;;;;9.93;73.54;101889.88;5037933;28;45372;-84
2022/10/04 05:32:02;;;;;;;;;31.50;25.50;;;;;9.91;72.81;101885.56;5056162;28;45675;-84
2022/10/04 05:34:48;;;;;;;;;29.50;19.50;;;;;9.93;72.98;101889.88;5037960;28;45290;-84
2022/10/04 05:37:38;;;;;;;;;25.25;23.50;;;;;9.89;73.22;101881.22;5054697;28;47105;-84
2022/10/04 05:40:25;;;;;;;;;26.75;22.50;;;;;9.84;73.10;101880.41;5055573;28;45839;-84
2022/10/04 05:42:53;;;;;;;;;29.50;22.25;;;;;9.84;73.12;101883.03;5038037;28;45313;-84
2022/10/04 05:45:22;;;;;;;;;27.75;23.75;;;;;9.85;73.46;101884.72;5056046;28;45360;-84
2022/10/04 05:47:50;;;;;;;;;27.75;23.00;;;;;9.83;73.59;101883.03;5037949;28;45353;-84
2022/10/04 05:50:25;;;;;;;;;28.25;24.50;;;;;9.83;73.62;101883.03;5021095;28;45442;-84
2022/10/04 05:52:51;;;;;;;;;29.00;23.50;;;;;9.84;73.47;101879.53;5037731;28;45534;-83
2022/10/04 05:55:27;;;;;;;;;38.50;23.25;;;;;9.83;73.44;101881.28;5037645;28;45538;-84
2022/10/04 05:58:17;;;;;;;;;28.25;23.75;;;;;9.78;73.96;101875.25;5037628;28;47243;-84
2022/10/04 06:01:07;;;;;;;;;34.25;26.75;;;;;9.77;73.99;101876.13;5055594;28;45338;-84
2022/10/04 06:03:58;;;;;;;;;36.00;25.25;;;;;9.75;73.98;101872.69;5055828;28;45334;-84
2022/10/04 06:06:39;;;;;;;;;34.00;23.75;;;;;9.70;74.06;101882.25;4976999;28;45664;-84
2022/10/04 06:09:13;;;;;;;;;33.75;26.00;;;;;9.68;73.98;101871.84;4976896;28;46528;-84
2022/10/04 06:11:59;;;;;;;;;33.00;27.00;;;;;9.72;73.93;101879.66;4976964;28;45400;-85
2022/10/04 06:15:02;;;;;;;;;30.25;25.25;;;;;9.75;74.13;101879.59;4993679;28;45399;-83
2022/10/04 06:17:46;;;;;;;;;27.75;23.75;;;;;9.82;74.06;101876.94;4951547;28;45394;-83
2022/10/04 06:20:35;;;;;;;;;34.50;27.50;;;;;9.84;73.79;101880.41;4993219;28;46270;-82
2022/10/04 06:23:09;;;;;;;;;35.00;23.75;;;;;9.84;74.13;101879.53;4979695;28;45247;-83
2022/10/04 06:25:38;;;;;;;;;36.50;26.25;;;;;9.83;74.32;101885.63;4980146;28;45634;-82
2022/10/04 06:28:19;;;;;;;;;30.50;24.25;;;;;9.80;73.85;101885.66;4996884;28;45451;-82
2022/10/04 06:31:11;;;;;;;;;39.00;32.00;;;;;9.80;74.57;101890.84;4980400;28;45456;-81
2022/10/04 06:33:45;;;;;;;;;30.00;23.50;;;;;9.78;74.43;101892.59;4996669;28;45434;-82
2022/10/04 06:36:33;;;;;;;;;37.00;30.00;;;;;9.75;75.24;101893.50;4996719;28;45392;-82
2022/10/04 06:39:13;;;;;;;;;40.50;30.50;;;;;9.68;75.35;101887.47;4984276;28;45473;-81
2022/10/04 06:41:54;;;;;;;;;30.75;29.00;;;;;9.65;74.97;101897.88;4979932;28;46630;-80
2022/10/04 06:44:38;;;;;;;;;40.00;27.00;;;;;9.71;75.47;101903.91;5037937;28;45395;-81
2022/10/04 06:47:29;;;;;;;;;44.75;27.50;;;;;9.73;75.63;101900.41;5058764;28;45350;-81
2022/10/04 06:50:19;;;;;;;;;39.50;30.25;;;;;9.70;75.70;101900.44;4996478;28;45447;-81
2022/10/04 06:53:23;;;;;;;;;42.25;27.25;;;;;9.72;76.05;101898.69;4995912;28;46196;-81
2022/10/04 06:56:10;;;;;;;;;28.75;27.00;;;;;9.83;75.80;101896.03;4979857;28;45458;-80
2022/10/04 06:58:52;;;;;;;;;39.00;28.50;;;;;9.86;75.89;101889.06;4996696;28;45406;-80
2022/10/04 07:01:27;;;;;;;;;39.50;26.50;;;;;9.87;75.51;101888.19;4996350;28;45521;-81
2022/10/04 07:04:00;;;;;;;;;32.50;24.25;;;;;9.94;75.89;101896.81;4979748;28;46332;-83
2022/10/04 07:06:46;;;;;;;;;37.75;30.75;;;;;9.99;75.80;101895.03;4996112;28;45890;-82
2022/10/04 07:09:27;;;;;;;;;42.75;32.25;;;;;10.04;75.61;101900.19;4979636;28;45403;-83
2022/10/04 07:12:00;;;;;;;;;38.25;31.00;;;;;10.10;75.44;101904.47;4980033;28;45602;-83
2022/10/04 07:14:37;;;;;;;;;36.50;28.00;;;;;10.17;75.58;101906.16;4979527;28;45542;-83
2022/10/04 07:17:18;;;;;;;;;38.75;33.00;;;;;10.23;75.34;101906.97;4979800;28;45758;-83
2022/10/04 07:19:51;;;;;;;;;43.00;33.25;;;;;10.24;75.30;101907.84;4996225;28;45485;-82
2022/10/04 07:22:33;;;;;;;;;43.25;34.50;;;;;10.26;74.97;101900.88;4979222;28;45419;-83
2022/10/04 07:25:14;;;;;;;;;46.25;34.25;;;;;10.22;74.72;101900.03;4979485;28;46357;-81
2022/10/04 07:29:19;;;;;;;;;44.25;33.50;;;;;10.20;74.87;101900.94;5032528;28;45334;-82
2022/10/04 07:30:38;;;;;;;;;42.00;29.75;;;;;10.21;74.77;101903.50;5058058;28;45397;-82
2022/10/04 07:33:05;;;;;;;;;36.25;29.00;;;;;10.30;75.12;101902.56;5039461;28;45496;-81
2022/10/04 07:35:43;;;;;;;;;41.00;27.50;;;;;10.40;75.08;101895.56;5039792;28;46529;-82
2022/10/04 07:38:19;;;;;;;;;35.50;31.75;;;;;10.44;74.91;101900.75;5039487;28;45964;-82
2022/10/04 07:41:12;;;;;;;;;44.00;31.75;;;;;10.49;74.80;101903.28;5039952;28;45503;-81
2022/10/04 07:43:51;;;;;;;;;38.50;29.50;;;;;10.56;74.59;101899.75;5057698;28;45378;-81
2022/10/04 07:46:39;;;;;;;;;44.50;33.75;;;;;10.61;74.44;101894.50;5039753;28;45529;-81
2022/10/04 07:49:12;;;;;;;;;45.50;35.50;;;;;10.64;74.42;101891.84;5039738;28;45359;-81
2022/10/04 07:51:59;;;;;;;;;40.50;32.25;;;;;10.69;74.49;101890.06;5057391;28;45353;-81
2022/10/04 07:54:46;;;;;;;;;42.50;34.50;;;;;10.77;74.59;101888.25;5022995;28;45346;-81
2022/10/04 07:57:27;;;;;;;;;33.75;33.75;;;;;10.85;74.83;101891.63;5039615;28;45590;-82
2022/10/04 08:00:04;;;;;;;;;39.25;34.00;;;;;10.91;74.51;101887.22;5023044;28;45888;-81
2022/10/04 08:02:32;;;;;;;;;36.75;29.75;;;;;10.97;74.54;101882.78;5039801;28;45571;-85
2022/10/04 08:05:14;;;;;;;;;40.00;33.75;;;;;11.05;74.51;101890.53;5057097;28;45376;-83
2022/10/04 08:07:45;;;;;;;;;42.25;35.00;;;;;11.15;74.96;101892.13;5039433;28;46233;-86
2022/10/04 08:10:28;;;;;;;;;46.50;33.25;;;;;11.26;74.86;101894.59;5057345;28;46013;-88
2022/10/04 08:13:01;;;;;;;;;37.25;32.75;;;;;11.34;74.70;101890.13;5029306;28;45419;-84
2022/10/04 08:15:35;;;;;;;;;39.75;33.75;;;;;11.46;74.20;101890.84;5037119;28;45424;-84
2022/10/04 08:18:14;;;;;;;;;42.75;33.00;;;;;11.57;74.25;101887.22;5036948;28;45747;-84
2022/10/04 08:20:46;;;;;;;;;42.00;30.00;;;;;11.69;73.91;101883.53;5019029;28;45308;-85
2022/10/04 08:23:41;;;;;;;;;49.25;34.75;;;;;11.80;73.70;101888.59;5019247;28;45388;-85
2022/10/04 08:26:42;;;;;;;;;44.75;35.50;;;;;11.90;73.50;101889.34;5036481;28;45599;-84
2022/10/04 08:29:41;;;;;;;;;48.25;35.50;;;;;11.97;73.36;101881.38;5036848;28;46491;-84
2022/10/04 08:32:44;;;;;;;;;39.50;34.00;;;;;12.06;73.51;101893.44;5036752;28;45441;-83
2022/10/04 08:35:31;;;;;;;;;41.25;35.50;;;;;12.12;73.31;101895.94;5036560;28;45604;-85
2022/10/04 08:38:02;;;;;;;;;42.25;36.25;;;;;12.23;73.08;101900.13;5035729;28;45397;-84
2022/10/04 08:40:42;;;;;;;;;43.25;35.50;;;;;12.33;72.86;101901.66;5036622;28;46402;-82
2022/10/04 08:43:27;;;;;;;;;40.75;34.50;;;;;12.42;72.49;101906.72;5038196;28;45353;-83
2022/10/04 08:46:16;;;;;;;;;43.25;36.75;;;;;12.56;72.56;101916.94;5044696;28;45355;-82
2022/10/04 08:49:20;;;;;;;;;40.25;33.75;;;;;12.64;72.23;101919.41;5056747;28;45260;-82
2022/10/04 08:52:04;;;;;;;;;43.25;31.75;;;;;12.71;72.38;101921.00;4994533;28;46307;-82
2022/10/04 08:54:53;;;;;;;;;44.75;37.00;;;;;12.79;72.09;101911.25;4994541;28;45426;-82
2022/10/04 08:57:37;;;;;;;;;43.00;36.25;;;;;12.89;72.16;101914.56;4994630;28;45460;-84
2022/10/04 09:00:36;;;;;;;;;43.50;37.00;;;;;12.98;72.19;101914.38;4994764;28;45438;-84
2022/10/04 09:03:38;;;;;;;;;38.75;33.25;;;;;13.05;71.80;101908.13;4993925;28;45465;-84
2022/10/04 09:06:19;;;;;;;;;39.00;34.00;;;;;13.13;71.94;101903.63;4994582;28;45807;-84
2022/10/04 09:08:53;;;;;;;;;45.50;36.00;;;;;13.22;71.51;101899.06;4994651;28;45402;-84
2022/10/04 09:11:25;;;;;;;;;35.75;32.50;;;;;13.28;71.89;101899.81;4994462;28;45689;-84
2022/10/04 09:14:05;;;;;;;;;46.75;37.00;;;;;13.38;71.75;101905.72;4977683;28;45591;-84
2022/10/04 09:16:46;;;;;;;;;34.25;27.50;;;;;13.44;72.04;101907.34;4994151;28;45893;-84
2022/10/04 09:19:20;;;;;;;;;41.25;34.00;;;;;13.56;71.85;101917.56;4993947;28;45362;-84
2022/10/04 09:21:46;;;;;;;;;42.00;30.25;;;;;13.67;71.84;101910.31;4989113;28;45442;-84
2022/10/04 09:24:17;;;;;;;;;33.25;29.75;;;;;13.79;71.79;101911.78;5055943;28;46110;-84
2022/10/04 09:26:52;;;;;;;;;42.25;31.50;;;;;13.89;71.49;101900.19;5055981;28;45857;-84
2022/10/04 09:29:55;;;;;;;;;42.50;34.00;;;;;14.04;71.20;101906.81;5056232;28;45549;-84
2022/10/04 09:32:24;;;;;;;;;32.50;27.50;;;;;14.22;70.94;101896.75;5037706;28;45559;-85
2022/10/04 09:35:30;;;;;;;;;32.00;24.50;;;;;14.36;70.75;101891.16;5055919;28;46068;-82
2022/10/04 09:38:20;;;;;;;;;49.00;30.25;;;;;14.46;70.64;101895.25;4990354;28;45489;-82
2022/10/04 09:41:02;;;;;;;;;37.00;28.25;;;;;14.55;70.40;101886.31;4974319;28;45418;-81
2022/10/04 09:43:59;;;;;;;;;40.75;33.00;;;;;14.59;69.93;101888.81;4974455;28;45617;-82
2022/10/04 09:46:50;;;;;;;;;53.00;37.00;;;;;14.66;70.06;101887.75;4974041;28;47048;-82
2022/10/04 09:49:45;;;;;;;;;50.75;34.75;;;;;14.75;70.03;101883.19;4974325;28;45402;-82
2022/10/04 09:52:48;;;;;;;;;39.75;35.50;;;;;14.85;69.84;101880.22;4958136;28;45533;-82
2022/10/04 09:55:16;;;;;;;;;32.75;24.50;;;;;14.98;69.38;101883.34;4897172;29;45680;-82
2022/10/04 09:58:08;;;;;;;;;33.25;27.75;;;;;15.10;69.09;101869.91;4896659;29;46267;-82
2022/10/04 10:00:45;;;;;;;;;27.75;22.75;;;;;15.26;69.19;101877.28;4887246;29;45766;-83
2022/10/04 10:03:11;;;;;;;;;26.25;18.50;;;;;15.41;69.98;101878.59;4896649;29;45452;-82
2022/10/04 10:06:03;;;;;;;;;20.75;17.25;;;;;15.58;69.48;101875.44;4897029;29;45389;-83
2022/10/04 10:09:00;;;;;;;;;22.50;19.50;;;;;15.73;69.24;101868.81;4896989;29;46482;-82
2022/10/04 10:14:46;;;;;;;;;26.00;20.75;;;;;16.02;69.29;101852.16;4953960;28;45361;-84
2022/10/04 10:17:27;;;;;;;;;21.67;16.33;;;;;16.15;69.07;101849.97;4957262;28;45556;-82
2022/10/04 10:20:33;;;;;;;;;18.50;18.00;;;;;16.30;67.75;101852.03;4957665;28;46484;-80
2022/10/04 10:23:19;;;;;;;;;18.75;14.25;;;;;16.45;68.04;101835.75;4957292;28;45934;-81
2022/10/04 10:26:16;;;;;;;;;17.75;15.50;;;;;16.59;66.26;101840.50;4997158;28;45386;-81
2022/10/04 10:29:01;;;;;;;;;28.25;14.00;;;;;16.65;66.01;101829.75;5016824;28;45429;-81
2022/10/04 10:31:49;;;;;;;;;14.00;12.25;;;;;16.74;65.97;101830.34;5034686;28;45411;-84
2022/10/04 10:34:42;;;;;;;;;20.50;14.00;;;;;16.84;64.78;101829.09;5050144;28;45810;-80
2022/10/04 10:37:49;;;;;;;;;11.75;11.00;;;;;16.94;65.46;101830.47;5038423;28;45617;-81
2022/10/04 10:40:39;;;;;;;;;19.50;17.00;;;;;17.01;64.02;101834.59;5044422;28;45369;-82
2022/10/04 10:43:28;;;;;;;;;24.75;19.50;;;;;17.10;62.52;101830.72;5037017;28;46637;-84
2022/10/04 10:46:23;;;;;;;;;22.50;16.00;;;;;17.16;63.93;101833.13;5018406;28;45732;-96
2022/10/04 10:49:09;;;;;;;;;20.75;16.00;;;;;17.28;63.12;101823.88;5040950;28;45447;-84
2022/10/04 10:51:55;;;;;;;;;22.00;20.00;;;;;17.45;63.67;101819.72;4976048;28;45315;-85
2022/10/04 10:54:38;;;;;;;;;24.00;19.50;;;;;17.65;64.00;101827.66;4958722;28;48231;-87
2022/10/04 10:57:16;;;;;;;;;22.00;17.75;;;;;17.88;62.78;101826.72;4992552;28;46041;-85
2022/10/04 11:00:30;;;;;;;;;19.50;17.00;;;;;18.15;63.25;101829.97;4992389;28;45489;-86
2022/10/04 11:03:16;;;;;;;;;26.75;22.75;;;;;18.41;61.40;101835.88;4993051;28;45469;-82
2022/10/04 11:06:18;;;;;;;;;23.75;20.75;;;;;18.68;62.12;101825.00;4992394;28;46318;-82
2022/10/04 11:09:02;;;;;;;;;21.00;19.00;;;;;19.09;60.67;101824.88;4993336;28;45712;-83
2022/10/04 11:11:48;;;;;;;;;15.50;14.00;;;;;19.56;61.10;101839.34;4996361;28;45331;-84
2022/10/04 11:14:42;;;;;;;;;16.25;15.00;;;;;20.74;58.77;101832.44;4994797;28;45311;-82
2022/10/04 11:17:19;;;;;;;;;16.50;12.50;;;;;23.31;56.15;101830.44;4994830;28;46181;-81
2022/10/04 11:19:56;;;;;;;;;18.75;16.75;;;;;25.96;50.09;101835.72;4999930;28;45814;-81
2022/10/04 11:22:30;;;;;;;;;12.75;11.50;;;;;27.88;43.65;101846.97;4995838;28;45429;-81
2022/10/04 11:25:04;;;;;;;;;12.50;9.00;;;;;29.25;40.82;101836.81;4995414;28;45423;-82
2022/10/04 11:27:50;;;;;;;;;13.50;11.75;;;;;30.15;39.36;101854.41;4995814;28;45391;-80
2022/10/04 11:30:25;;;;;;;;;15.75;12.75;;;;;31.17;37.90;101847.31;5057099;28;45460;-81
2022/10/04 11:33:20;;;;;;;;;12.00;12.00;;;;;32.15;36.21;101866.09;5039754;28;46488;-83
2022/10/04 11:36:07;;;;;;;;;11.50;10.50;;;;;33.08;34.10;101865.31;5039811;28;46003;-82
2022/10/04 11:38:54;;;;;;;;;7.00;7.00;;;;;34.10;33.46;101864.03;5038925;28;47373;-82
2022/10/04 11:41:28;;;;;;;;;13.25;10.75;;;;;34.73;31.20;101864.16;5055910;28;45369;-82
2022/10/04 11:44:14;;;;;;;;;12.75;10.50;;;;;35.45;28.28;101869.28;5029570;28;45417;-85
2022/10/04 11:47:06;;;;;;;;;10.25;9.75;;;;;36.31;31.07;101863.59;5051703;28;45576;-83
2022/10/04 11:49:52;;;;;;;;;11.25;10.25;;;;;37.29;29.86;101855.16;5040451;28;46424;-89
2022/10/04 11:52:39;;;;;;;;;12.75;12.00;;;;;38.09;27.68;101850.38;5039818;28;45448;-81
2022/10/04 11:55:30;;;;;;;;;12.25;10.50;;;;;38.32;24.50;101852.81;5057324;28;45551;-82
2022/10/04 11:58:08;;;;;;;;;13.75;11.00;;;;;38.25;26.76;101841.88;5057154;28;45403;-82
2022/10/04 12:00:45;;;;;;;;;11.25;10.00;;;;;38.82;25.86;101847.13;5039936;28;47473;-94
2022/10/04 12:03:20;;;;;;;;;11.75;8.75;;;;;39.05;24.80;101846.78;5039292;28;45941;-88
2022/10/04 12:06:33;;;;;;;;;;;;;;;;;;;;;
2022/10/04 12:09:14;;;;;;;;;;;;;;;;;;;;;
2022/10/04 12:15:21;;;;;;;;;12.00;10.00;;;;;40.39;24.15;101852.97;5042272;28;45470;-91
2022/10/04 12:18:18;;;;;;;;;10.00;8.75;;;;;40.72;24.10;101846.53;5057389;28;45524;-89